sensor_id;sensor_type;location;lat;lon;timestamp;pressure;altitude;pressure_sealevel;temperature;humidity
6198;BME280;3132;42.622;23.328;2023-02-05T00:01:22;92715.72;;;-4.17;100.00
6198;BME280;3132;42.622;23.328;2023-02-05T00:03:48;92742.34;;;-3.92;100.00
6198;BME280;3132;42.622;23.328;2023-02-05T00:06:13;92737.97;;;-3.98;100.00
6198;BME280;3132;42.622;23.328;2023-02-05T00:08:39;92705.53;;;-4.17;100.00
6198;BME280;3132;42.622;23.328;2023-02-05T00:11:04;92737.44;;;-3.87;100.00
6198;BME280;3132;42.622;23.328;2023-02-05T00:13:38;92748.81;;;-3.90;100.00
6198;BME280;3132;42.622;23.328;2023-02-05T00:16:12;92744.03;;;-3.99;100.00
6198;BME280;3132;42.622;23.328;2023-02-05T00:18:38;92747.78;;;-3.95;100.00
6198;BME280;3132;42.622;23.328;2023-02-05T00:21:04;92745.09;;;-3.87;100.00
6198;BME280;3132;42.622;23.328;2023-02-05T00:23:30;92751.78;;;-3.86;99.46
6198;BME280;3132;42.622;23.328;2023-02-05T00:25:56;92755.50;;;-3.82;98.57
6198;BME280;3132;42.622;23.328;2023-02-05T00:28:22;92747.19;;;-3.97;96.50
6198;BME280;3132;42.622;23.328;2023-02-05T00:30:47;92756.97;;;-4.01;97.23
6198;BME280;3132;42.622;23.328;2023-02-05T00:33:12;92758.03;;;-3.89;97.51
6198;BME280;3132;42.622;23.328;2023-02-05T00:35:38;92759.22;;;-3.85;96.54
6198;BME280;3132;42.622;23.328;2023-02-05T00:38:03;92744.88;;;-3.92;96.09
6198;BME280;3132;42.622;23.328;2023-02-05T00:40:28;92727.09;;;-4.13;95.58
6198;BME280;3132;42.622;23.328;2023-02-05T00:42:54;92749.28;;;-4.07;94.45
6198;BME280;3132;42.622;23.328;2023-02-05T00:45:19;92755.66;;;-3.90;95.09
6198;BME280;3132;42.622;23.328;2023-02-05T00:47:44;92763.53;;;-3.85;96.09
6198;BME280;3132;42.622;23.328;2023-02-05T00:50:10;92738.50;;;-4.09;93.69
6198;BME280;3132;42.622;23.328;2023-02-05T00:52:35;92756.00;;;-4.00;93.51
6198;BME280;3132;42.622;23.328;2023-02-05T00:55:01;92768.59;;;-3.92;96.36
6198;BME280;3132;42.622;23.328;2023-02-05T00:57:26;92768.34;;;-4.03;94.41
6198;BME280;3132;42.622;23.328;2023-02-05T00:59:52;92786.56;;;-4.06;93.72
6198;BME280;3132;42.622;23.328;2023-02-05T01:02:20;92751.97;;;-4.15;95.67
6198;BME280;3132;42.622;23.328;2023-02-05T01:04:49;92758.13;;;-4.10;95.32
6198;BME280;3132;42.622;23.328;2023-02-05T01:07:16;92765.28;;;-3.86;99.09
6198;BME280;3132;42.622;23.328;2023-02-05T01:09:41;92760.72;;;-4.03;96.63
6198;BME280;3132;42.622;23.328;2023-02-05T01:12:06;92735.84;;;-4.29;95.74
6198;BME280;3132;42.622;23.328;2023-02-05T01:14:33;92733.06;;;-4.34;95.75
6198;BME280;3132;42.622;23.328;2023-02-05T01:16:58;92773.50;;;-4.24;95.72
6198;BME280;3132;42.622;23.328;2023-02-05T01:19:24;92773.81;;;-4.06;97.50
6198;BME280;3132;42.622;23.328;2023-02-05T01:21:49;92772.50;;;-4.23;96.79
6198;BME280;3132;42.622;23.328;2023-02-05T01:24:14;92764.28;;;-4.25;97.26
6198;BME280;3132;42.622;23.328;2023-02-05T01:26:40;92770.81;;;-4.16;97.61
6198;BME280;3132;42.622;23.328;2023-02-05T01:29:05;92768.16;;;-4.29;97.36
6198;BME280;3132;42.622;23.328;2023-02-05T01:31:30;92775.81;;;-4.29;96.59
6198;BME280;3132;42.622;23.328;2023-02-05T01:33:57;92774.75;;;-4.41;96.23
6198;BME280;3132;42.622;23.328;2023-02-05T01:36:22;92766.38;;;-4.35;97.88
6198;BME280;3132;42.622;23.328;2023-02-05T01:38:48;92772.34;;;-4.22;97.28
6198;BME280;3132;42.622;23.328;2023-02-05T01:41:13;92781.94;;;-4.24;95.78
6198;BME280;3132;42.622;23.328;2023-02-05T01:43:39;92789.78;;;-4.25;95.56
6198;BME280;3132;42.622;23.328;2023-02-05T01:46:13;92785.63;;;-4.26;93.56
6198;BME280;3132;42.622;23.328;2023-02-05T01:48:43;92775.06;;;-4.23;94.72
6198;BME280;3132;42.622;23.328;2023-02-05T01:51:13;92786.06;;;-4.23;93.50
6198;BME280;3132;42.622;23.328;2023-02-05T01:53:40;92766.75;;;-4.38;93.56
6198;BME280;3132;42.622;23.328;2023-02-05T01:56:20;92762.69;;;-4.26;96.14
6198;BME280;3132;42.622;23.328;2023-02-05T01:58:59;92784.53;;;-4.17;93.73
6198;BME280;3132;42.622;23.328;2023-02-05T02:01:26;92789.63;;;-4.17;92.06
6198;BME280;3132;42.622;23.328;2023-02-05T02:03:53;92788.53;;;-4.36;90.89
6198;BME280;3132;42.622;23.328;2023-02-05T02:06:19;92796.28;;;-4.16;92.48
6198;BME280;3132;42.622;23.328;2023-02-05T02:08:45;92780.69;;;-4.34;91.02
6198;BME280;3132;42.622;23.328;2023-02-05T02:11:12;92794.50;;;-4.22;93.26
6198;BME280;3132;42.622;23.328;2023-02-05T02:13:38;92796.06;;;-4.21;93.63
6198;BME280;3132;42.622;23.328;2023-02-05T02:16:06;92785.59;;;-4.33;92.30
6198;BME280;3132;42.622;23.328;2023-02-05T02:18:33;92798.84;;;-4.16;93.02
6198;BME280;3132;42.622;23.328;2023-02-05T02:29:44;92817.25;;;-4.42;96.66
6198;BME280;3132;42.622;23.328;2023-02-05T02:32:35;92805.06;;;-4.53;95.79
6198;BME280;3132;42.622;23.328;2023-02-05T02:42:54;92822.13;;;-4.68;97.28
6198;BME280;3132;42.622;23.328;2023-02-05T02:45:26;92818.31;;;-4.57;98.18
6198;BME280;3132;42.622;23.328;2023-02-05T02:47:56;92824.13;;;-4.63;95.85
6198;BME280;3132;42.622;23.328;2023-02-05T02:50:28;92816.16;;;-4.81;95.01
6198;BME280;3132;42.622;23.328;2023-02-05T02:53:01;92827.22;;;-4.68;96.95
6198;BME280;3132;42.622;23.328;2023-02-05T02:55:28;92817.41;;;-4.71;96.20
6198;BME280;3132;42.622;23.328;2023-02-05T02:57:58;92829.47;;;-4.58;94.91
6198;BME280;3132;42.622;23.328;2023-02-05T03:00:25;92833.75;;;-4.65;94.99
6198;BME280;3132;42.622;23.328;2023-02-05T03:02:59;92803.84;;;-4.78;95.48
6198;BME280;3132;42.622;23.328;2023-02-05T03:05:26;92807.41;;;-4.93;93.74
6198;BME280;3132;42.622;23.328;2023-02-05T03:08:40;92834.41;;;-4.78;93.71
6198;BME280;3132;42.622;23.328;2023-02-05T03:13:19;92836.63;;;-4.89;93.30
6198;BME280;3132;42.622;23.328;2023-02-05T03:15:45;92822.34;;;-4.90;92.67
6198;BME280;3132;42.622;23.328;2023-02-05T03:18:12;92843.59;;;-4.56;93.98
6198;BME280;3132;42.622;23.328;2023-02-05T03:20:49;92855.06;;;-4.66;92.86
6198;BME280;3132;42.622;23.328;2023-02-05T03:23:16;92845.22;;;-4.69;93.66
6198;BME280;3132;42.622;23.328;2023-02-05T03:25:41;92833.25;;;-4.97;92.18
6198;BME280;3132;42.622;23.328;2023-02-05T03:28:07;92853.63;;;-4.90;91.64
6198;BME280;3132;42.622;23.328;2023-02-05T03:30:42;92832.00;;;-5.01;92.74
6198;BME280;3132;42.622;23.328;2023-02-05T03:33:25;92850.72;;;-4.87;94.05
6198;BME280;3132;42.622;23.328;2023-02-05T03:36:01;92855.81;;;-4.87;92.60
6198;BME280;3132;42.622;23.328;2023-02-05T03:44:21;92846.91;;;-4.98;92.83
6198;BME280;3132;42.622;23.328;2023-02-05T03:50:04;92853.25;;;-4.93;93.38
6198;BME280;3132;42.622;23.328;2023-02-05T03:52:33;92851.69;;;-5.09;92.80
6198;BME280;3132;42.622;23.328;2023-02-05T03:55:12;92862.19;;;-4.98;94.14
6198;BME280;3132;42.622;23.328;2023-02-05T03:58:31;92859.38;;;-5.03;93.72
6198;BME280;3132;42.622;23.328;2023-02-05T04:00:38;92832.16;;;-5.23;93.39
6198;BME280;3132;42.622;23.328;2023-02-05T04:03:04;92856.34;;;-5.13;93.73
6198;BME280;3132;42.622;23.328;2023-02-05T04:05:29;92873.63;;;-5.08;93.72
6198;BME280;3132;42.622;23.328;2023-02-05T04:07:54;92849.84;;;-5.15;94.36
6198;BME280;3132;42.622;23.328;2023-02-05T04:10:20;92875.44;;;-5.02;94.27
6198;BME280;3132;42.622;23.328;2023-02-05T04:12:45;92853.88;;;-5.06;93.51
6198;BME280;3132;42.622;23.328;2023-02-05T04:15:11;92880.97;;;-4.99;93.11
6198;BME280;3132;42.622;23.328;2023-02-05T04:17:37;92857.16;;;-5.27;92.78
6198;BME280;3132;42.622;23.328;2023-02-05T04:20:04;92878.88;;;-5.10;93.92
6198;BME280;3132;42.622;23.328;2023-02-05T04:22:30;92852.00;;;-5.33;94.17
6198;BME280;3132;42.622;23.328;2023-02-05T04:24:55;92878.78;;;-5.02;95.32
6198;BME280;3132;42.622;23.328;2023-02-05T04:27:20;92868.00;;;-5.04;95.41
6198;BME280;3132;42.622;23.328;2023-02-05T04:29:46;92881.19;;;-5.15;94.64
6198;BME280;3132;42.622;23.328;2023-02-05T04:32:11;92857.97;;;-5.41;95.55
6198;BME280;3132;42.622;23.328;2023-02-05T04:34:36;92887.84;;;-5.14;96.18
6198;BME280;3132;42.622;23.328;2023-02-05T04:37:02;92884.16;;;-5.11;95.49
6198;BME280;3132;42.622;23.328;2023-02-05T04:39:27;92856.63;;;-5.37;94.68
6198;BME280;3132;42.622;23.328;2023-02-05T04:41:53;92858.72;;;-5.26;95.71
6198;BME280;3132;42.622;23.328;2023-02-05T04:44:18;92885.78;;;-5.25;94.42
6198;BME280;3132;42.622;23.328;2023-02-05T04:46:44;92883.81;;;-5.23;95.29
6198;BME280;3132;42.622;23.328;2023-02-05T04:49:09;92883.47;;;-5.20;95.93
6198;BME280;3132;42.622;23.328;2023-02-05T04:51:34;92891.63;;;-5.10;96.48
6198;BME280;3132;42.622;23.328;2023-02-05T04:54:00;92864.97;;;-5.43;95.95
6198;BME280;3132;42.622;23.328;2023-02-05T04:56:25;92900.91;;;-5.17;96.30
6198;BME280;3132;42.622;23.328;2023-02-05T04:58:51;92901.22;;;-5.26;95.00
6198;BME280;3132;42.622;23.328;2023-02-05T05:01:20;92900.94;;;-5.31;96.24
6198;BME280;3132;42.622;23.328;2023-02-05T05:03:46;92907.41;;;-5.29;95.50
6198;BME280;3132;42.622;23.328;2023-02-05T05:06:12;92912.78;;;-5.24;96.63
6198;BME280;3132;42.622;23.328;2023-02-05T05:08:38;92901.88;;;-5.18;98.86
6198;BME280;3132;42.622;23.328;2023-02-05T05:11:12;92879.75;;;-5.03;100.00
6198;BME280;3132;42.622;23.328;2023-02-05T05:13:39;92914.84;;;-4.98;99.59
6198;BME280;3132;42.622;23.328;2023-02-05T05:16:05;92900.22;;;-5.25;97.34
6198;BME280;3132;42.622;23.328;2023-02-05T05:18:31;92913.72;;;-5.10;97.79
6198;BME280;3132;42.622;23.328;2023-02-05T05:20:57;92916.56;;;-5.34;96.58
6198;BME280;3132;42.622;23.328;2023-02-05T05:23:22;92932.69;;;-5.27;97.62
6198;BME280;3132;42.622;23.328;2023-02-05T05:25:48;92916.75;;;-5.36;97.33
6198;BME280;3132;42.622;23.328;2023-02-05T05:28:15;92935.41;;;-5.29;97.19
6198;BME280;3132;42.622;23.328;2023-02-05T05:30:43;92934.69;;;-5.23;97.86
6198;BME280;3132;42.622;23.328;2023-02-05T05:33:09;92916.34;;;-5.04;99.54
6198;BME280;3132;42.622;23.328;2023-02-05T05:35:34;92916.16;;;-5.17;97.22
6198;BME280;3132;42.622;23.328;2023-02-05T05:38:00;92931.03;;;-5.35;96.75
6198;BME280;3132;42.622;23.328;2023-02-05T05:40:26;92928.31;;;-5.33;97.46
6198;BME280;3132;42.622;23.328;2023-02-05T05:43:12;92916.47;;;-5.55;96.12
6198;BME280;3132;42.622;23.328;2023-02-05T05:45:57;92954.63;;;-5.41;95.97
6198;BME280;3132;42.622;23.328;2023-02-05T05:48:23;92957.16;;;-5.41;96.27
6198;BME280;3132;42.622;23.328;2023-02-05T05:50:48;92949.25;;;-5.46;95.99
6198;BME280;3132;42.622;23.328;2023-02-05T05:53:14;92947.69;;;-5.47;95.88
6198;BME280;3132;42.622;23.328;2023-02-05T05:55:39;92955.75;;;-5.29;95.78
6198;BME280;3132;42.622;23.328;2023-02-05T05:58:04;92976.19;;;-5.22;96.97
6198;BME280;3132;42.622;23.328;2023-02-05T06:00:30;92970.31;;;-5.23;96.36
6198;BME280;3132;42.622;23.328;2023-02-05T06:02:56;92973.13;;;-5.18;96.44
6198;BME280;3132;42.622;23.328;2023-02-05T06:05:21;92975.81;;;-4.90;99.29
6198;BME280;3132;42.622;23.328;2023-02-05T06:07:46;92978.19;;;-4.88;98.91
6198;BME280;3132;42.622;23.328;2023-02-05T06:10:12;92973.03;;;-5.10;96.16
6198;BME280;3132;42.622;23.328;2023-02-05T06:12:37;92971.72;;;-5.20;95.47
6198;BME280;3132;42.622;23.328;2023-02-05T06:15:03;92983.41;;;-4.97;95.20
6198;BME280;3132;42.622;23.328;2023-02-05T06:17:28;92987.97;;;-4.92;97.61
6198;BME280;3132;42.622;23.328;2023-02-05T06:19:54;92995.41;;;-5.20;94.59
6198;BME280;3132;42.622;23.328;2023-02-05T06:22:19;93001.47;;;-5.06;95.19
6198;BME280;3132;42.622;23.328;2023-02-05T06:24:44;93008.28;;;-5.21;94.78
6198;BME280;3132;42.622;23.328;2023-02-05T06:27:10;93000.44;;;-5.26;94.84
6198;BME280;3132;42.622;23.328;2023-02-05T06:29:35;92996.66;;;-5.16;95.57
6198;BME280;3132;42.622;23.328;2023-02-05T06:32:01;93005.88;;;-5.00;96.41
6198;BME280;3132;42.622;23.328;2023-02-05T06:34:26;93020.16;;;-5.14;95.83
6198;BME280;3132;42.622;23.328;2023-02-05T06:36:51;93022.38;;;-5.11;95.32
6198;BME280;3132;42.622;23.328;2023-02-05T06:39:17;92995.34;;;-5.26;96.22
6198;BME280;3132;42.622;23.328;2023-02-05T06:41:42;93005.16;;;-5.09;96.53
6198;BME280;3132;42.622;23.328;2023-02-05T06:44:07;93011.03;;;-5.08;96.09
6198;BME280;3132;42.622;23.328;2023-02-05T06:46:33;93025.97;;;-4.90;95.87
6198;BME280;3132;42.622;23.328;2023-02-05T06:48:58;93025.84;;;-5.12;94.86
6198;BME280;3132;42.622;23.328;2023-02-05T06:51:24;93034.63;;;-5.00;95.27
6198;BME280;3132;42.622;23.328;2023-02-05T06:53:49;93042.09;;;-5.13;94.84
6198;BME280;3132;42.622;23.328;2023-02-05T06:56:16;93053.06;;;-5.12;94.88
6198;BME280;3132;42.622;23.328;2023-02-05T06:58:42;93046.91;;;-4.88;97.49
6198;BME280;3132;42.622;23.328;2023-02-05T07:01:07;93042.69;;;-5.25;96.28
6198;BME280;3132;42.622;23.328;2023-02-05T07:03:32;93056.94;;;-4.87;98.48
6198;BME280;3132;42.622;23.328;2023-02-05T07:06:05;93059.13;;;-4.69;96.52
6198;BME280;3132;42.622;23.328;2023-02-05T07:08:30;93041.59;;;-4.93;95.19
6198;BME280;3132;42.622;23.328;2023-02-05T07:10:56;93066.16;;;-5.01;94.24
6198;BME280;3132;42.622;23.328;2023-02-05T07:13:21;93053.50;;;-5.09;94.25
6198;BME280;3132;42.622;23.328;2023-02-05T07:15:47;93070.38;;;-4.78;95.08
6198;BME280;3132;42.622;23.328;2023-02-05T07:18:13;93076.34;;;-4.86;94.70
6198;BME280;3132;42.622;23.328;2023-02-05T07:20:39;93062.44;;;-4.54;95.43
6198;BME280;3132;42.622;23.328;2023-02-05T07:23:04;93078.72;;;-4.84;93.88
6198;BME280;3132;42.622;23.328;2023-02-05T07:25:31;93085.97;;;-4.96;94.26
6198;BME280;3132;42.622;23.328;2023-02-05T07:28:01;93076.53;;;-4.87;93.91
6198;BME280;3132;42.622;23.328;2023-02-05T07:30:27;93063.31;;;-4.47;94.83
6198;BME280;3132;42.622;23.328;2023-02-05T07:32:52;93067.78;;;-4.20;97.46
6198;BME280;3132;42.622;23.328;2023-02-05T07:35:17;93086.25;;;-4.62;93.06
6198;BME280;3132;42.622;23.328;2023-02-05T07:37:43;93091.78;;;-4.58;94.12
6198;BME280;3132;42.622;23.328;2023-02-05T07:40:09;93095.66;;;-4.77;93.34
6198;BME280;3132;42.622;23.328;2023-02-05T07:42:34;93087.16;;;-4.55;94.20
6198;BME280;3132;42.622;23.328;2023-02-05T07:45:00;93094.44;;;-4.37;93.64
6198;BME280;3132;42.622;23.328;2023-02-05T07:47:25;93090.09;;;-4.22;95.03
6198;BME280;3132;42.622;23.328;2023-02-05T07:49:52;93107.56;;;-4.19;94.57
6198;BME280;3132;42.622;23.328;2023-02-05T07:52:17;93098.53;;;-4.51;93.93
6198;BME280;3132;42.622;23.328;2023-02-05T07:54:42;93093.25;;;-4.20;96.34
6198;BME280;3132;42.622;23.328;2023-02-05T07:57:08;93110.16;;;-3.98;95.80
6198;BME280;3132;42.622;23.328;2023-02-05T07:59:33;93104.09;;;-4.33;93.85
6198;BME280;3132;42.622;23.328;2023-02-05T08:01:59;93108.66;;;-4.28;93.46
6198;BME280;3132;42.622;23.328;2023-02-05T08:04:24;93113.22;;;-4.24;93.62
6198;BME280;3132;42.622;23.328;2023-02-05T08:06:52;93113.16;;;-4.09;97.87
6198;BME280;3132;42.622;23.328;2023-02-05T08:09:17;93092.94;;;-3.96;99.23
6198;BME280;3132;42.622;23.328;2023-02-05T08:11:43;93127.59;;;-3.45;99.56
6198;BME280;3132;42.622;23.328;2023-02-05T08:14:08;93117.13;;;-3.50;96.64
6198;BME280;3132;42.622;23.328;2023-02-05T08:16:33;93131.06;;;-3.53;93.75
6198;BME280;3132;42.622;23.328;2023-02-05T08:18:59;93129.09;;;-3.30;95.74
6198;BME280;3132;42.622;23.328;2023-02-05T08:21:24;93132.41;;;-3.57;92.50
6198;BME280;3132;42.622;23.328;2023-02-05T08:23:50;93125.88;;;-3.80;90.80
6198;BME280;3132;42.622;23.328;2023-02-05T08:26:16;93115.13;;;-3.76;92.00
6198;BME280;3132;42.622;23.328;2023-02-05T08:28:42;93140.59;;;-3.19;90.27
6198;BME280;3132;42.622;23.328;2023-02-05T08:31:09;93139.38;;;-3.02;89.82
6198;BME280;3132;42.622;23.328;2023-02-05T08:33:35;93122.59;;;-3.53;89.34
6198;BME280;3132;42.622;23.328;2023-02-05T08:36:00;93129.03;;;-3.36;90.66
6198;BME280;3132;42.622;23.328;2023-02-05T08:38:26;93130.84;;;-2.60;95.67
6198;BME280;3132;42.622;23.328;2023-02-05T08:40:51;93130.81;;;-2.88;88.82
6198;BME280;3132;42.622;23.328;2023-02-05T08:43:16;93116.34;;;-2.81;86.37
6198;BME280;3132;42.622;23.328;2023-02-05T08:45:45;93151.34;;;-2.54;86.23
6198;BME280;3132;42.622;23.328;2023-02-05T08:48:12;93140.13;;;-2.80;85.41
6198;BME280;3132;42.622;23.328;2023-02-05T08:50:37;93153.44;;;-3.34;87.06
6198;BME280;3132;42.622;23.328;2023-02-05T08:53:02;93120.72;;;-3.45;87.12
6198;BME280;3132;42.622;23.328;2023-02-05T08:55:28;93146.19;;;-3.09;92.36
6198;BME280;3132;42.622;23.328;2023-02-05T08:57:53;93155.06;;;-3.26;87.62
6198;BME280;3132;42.622;23.328;2023-02-05T09:00:20;93138.13;;;-1.83;90.29
6198;BME280;3132;42.622;23.328;2023-02-05T09:02:45;93149.88;;;-2.63;85.72
6198;BME280;3132;42.622;23.328;2023-02-05T09:05:11;93144.25;;;-3.07;84.96
6198;BME280;3132;42.622;23.328;2023-02-05T09:07:38;93095.84;;;-3.43;86.18
6198;BME280;3132;42.622;23.328;2023-02-05T09:10:08;93169.59;;;-3.05;86.57
6198;BME280;3132;42.622;23.328;2023-02-05T09:12:34;93136.84;;;-2.74;84.79
6198;BME280;3132;42.622;23.328;2023-02-05T09:14:59;93177.44;;;-3.07;84.42
6198;BME280;3132;42.622;23.328;2023-02-05T09:17:24;93163.50;;;-2.83;82.90
6198;BME280;3132;42.622;23.328;2023-02-05T09:19:50;93152.06;;;-2.32;77.94
6198;BME280;3132;42.622;23.328;2023-02-05T09:22:15;93177.28;;;-2.78;79.30
6198;BME280;3132;42.622;23.328;2023-02-05T09:24:42;93180.22;;;-2.81;79.55
6198;BME280;3132;42.622;23.328;2023-02-05T09:27:08;93191.34;;;-2.40;78.56
6198;BME280;3132;42.622;23.328;2023-02-05T09:29:33;93193.03;;;-2.74;78.58
6198;BME280;3132;42.622;23.328;2023-02-05T09:31:58;93193.09;;;-2.68;77.07
6198;BME280;3132;42.622;23.328;2023-02-05T09:34:24;93180.25;;;-2.47;76.19
6198;BME280;3132;42.622;23.328;2023-02-05T09:36:49;93201.03;;;-2.29;76.81
6198;BME280;3132;42.622;23.328;2023-02-05T09:39:15;93197.34;;;-2.47;75.95
6198;BME280;3132;42.622;23.328;2023-02-05T09:41:54;93214.78;;;-2.57;75.74
6198;BME280;3132;42.622;23.328;2023-02-05T09:44:41;93203.22;;;-2.26;76.62
6198;BME280;3132;42.622;23.328;2023-02-05T09:47:17;93188.31;;;-2.50;75.95
6198;BME280;3132;42.622;23.328;2023-02-05T09:52:34;93203.50;;;-2.69;77.94
6198;BME280;3132;42.622;23.328;2023-02-05T09:55:04;93205.56;;;-1.97;74.27
6198;BME280;3132;42.622;23.328;2023-02-05T09:57:34;93197.72;;;-2.57;74.16
6198;BME280;3132;42.622;23.328;2023-02-05T10:00:04;93197.22;;;-2.67;74.47
6198;BME280;3132;42.622;23.328;2023-02-05T10:02:36;93208.44;;;-2.68;75.68
6198;BME280;3132;42.622;23.328;2023-02-05T10:05:13;93198.03;;;-2.87;75.38
6198;BME280;3132;42.622;23.328;2023-02-05T10:08:15;93196.38;;;-2.19;74.78
6198;BME280;3132;42.622;23.328;2023-02-05T10:10:48;93211.91;;;-2.20;73.05
6198;BME280;3132;42.622;23.328;2023-02-05T10:13:36;93205.75;;;-1.98;72.30
6198;BME280;3132;42.622;23.328;2023-02-05T10:22:39;93200.97;;;-2.08;71.38
6198;BME280;3132;42.622;23.328;2023-02-05T10:30:55;93209.44;;;-2.41;73.20
6198;BME280;3132;42.622;23.328;2023-02-05T10:36:01;93218.16;;;-2.78;72.32
6198;BME280;3132;42.622;23.328;2023-02-05T10:38:34;93213.19;;;-3.07;73.14
6198;BME280;3132;42.622;23.328;2023-02-05T10:41:10;93207.81;;;-2.91;73.09
6198;BME280;3132;42.622;23.328;2023-02-05T10:43:47;93192.63;;;-3.20;73.55
6198;BME280;3132;42.622;23.328;2023-02-05T10:46:15;93211.88;;;-3.17;73.35
6198;BME280;3132;42.622;23.328;2023-02-05T10:48:51;93211.72;;;-3.16;75.20
6198;BME280;3132;42.622;23.328;2023-02-05T10:51:28;93215.59;;;-3.20;74.14
6198;BME280;3132;42.622;23.328;2023-02-05T10:53:57;93205.69;;;-3.30;72.47
6198;BME280;3132;42.622;23.328;2023-02-05T10:56:24;93196.63;;;-3.11;73.17
6198;BME280;3132;42.622;23.328;2023-02-05T10:58:57;93210.44;;;-3.05;72.00
6198;BME280;3132;42.622;23.328;2023-02-05T11:01:29;93218.19;;;-2.99;72.42
6198;BME280;3132;42.622;23.328;2023-02-05T11:04:02;93216.53;;;-2.85;72.06
6198;BME280;3132;42.622;23.328;2023-02-05T11:06:35;93192.56;;;-3.05;73.15
6198;BME280;3132;42.622;23.328;2023-02-05T11:09:02;93213.41;;;-3.23;71.76
6198;BME280;3132;42.622;23.328;2023-02-05T11:11:30;93156.25;;;-3.64;72.28
6198;BME280;3132;42.622;23.328;2023-02-05T11:14:02;93214.31;;;-3.09;73.69
6198;BME280;3132;42.622;23.328;2023-02-05T11:16:41;93216.84;;;-2.46;74.50
6198;BME280;3132;42.622;23.328;2023-02-05T11:19:20;93217.91;;;-2.34;71.71
6198;BME280;3132;42.622;23.328;2023-02-05T11:22:04;93227.00;;;-3.37;71.02
6198;BME280;3132;42.622;23.328;2023-02-05T11:24:37;93238.00;;;-3.37;69.89
6198;BME280;3132;42.622;23.328;2023-02-05T11:27:25;93233.03;;;-3.23;70.01
6198;BME280;3132;42.622;23.328;2023-02-05T11:29:52;93224.31;;;-2.93;69.65
6198;BME280;3132;42.622;23.328;2023-02-05T11:34:44;93226.63;;;-3.19;68.74
6198;BME280;3132;42.622;23.328;2023-02-05T11:37:15;93230.06;;;-3.06;68.27
6198;BME280;3132;42.622;23.328;2023-02-05T11:39:41;93209.19;;;-3.16;68.27
6198;BME280;3132;42.622;23.328;2023-02-05T11:42:22;93220.09;;;-2.59;66.65
6198;BME280;3132;42.622;23.328;2023-02-05T11:44:51;93197.34;;;-2.47;67.44
6198;BME280;3132;42.622;23.328;2023-02-05T11:47:33;93229.56;;;-2.25;66.39
6198;BME280;3132;42.622;23.328;2023-02-05T11:50:00;93217.22;;;-2.22;65.87
6198;BME280;3132;42.622;23.328;2023-02-05T11:52:32;93234.47;;;-2.03;64.51
6198;BME280;3132;42.622;23.328;2023-02-05T11:54:59;93219.66;;;-2.35;62.99
6198;BME280;3132;42.622;23.328;2023-02-05T11:57:34;93222.59;;;-2.38;65.85
6198;BME280;3132;42.622;23.328;2023-02-05T12:00:01;93234.84;;;-2.06;62.59
6198;BME280;3132;42.622;23.328;2023-02-05T12:02:42;93196.19;;;-2.17;62.95
6198;BME280;3132;42.622;23.328;2023-02-05T12:08:06;93219.47;;;-1.72;60.88
6198;BME280;3132;42.622;23.328;2023-02-05T12:10:50;93222.94;;;-1.86;60.77
6198;BME280;3132;42.622;23.328;2023-02-05T12:13:31;93215.84;;;-1.84;63.73
6198;BME280;3132;42.622;23.328;2023-02-05T12:24:38;93205.63;;;-1.36;60.63
6198;BME280;3132;42.622;23.328;2023-02-05T12:29:54;93214.84;;;-1.89;62.59
6198;BME280;3132;42.622;23.328;2023-02-05T12:32:52;93183.69;;;-1.99;63.37
6198;BME280;3132;42.622;23.328;2023-02-05T12:43:29;93214.84;;;-1.48;64.99
6198;BME280;3132;42.622;23.328;2023-02-05T12:48:48;93212.91;;;-1.33;63.31
6198;BME280;3132;42.622;23.328;2023-02-05T13:00:22;93207.06;;;-1.75;66.99
6198;BME280;3132;42.622;23.328;2023-02-05T13:05:29;93204.16;;;-1.99;67.58
6198;BME280;3132;42.622;23.328;2023-02-05T13:08:03;93212.94;;;-1.81;68.55
6198;BME280;3132;42.622;23.328;2023-02-05T13:10:39;93209.75;;;-2.51;69.71
6198;BME280;3132;42.622;23.328;2023-02-05T13:13:14;93212.47;;;-2.52;72.34
6198;BME280;3132;42.622;23.328;2023-02-05T13:15:42;93208.84;;;-2.37;73.56
6198;BME280;3132;42.622;23.328;2023-02-05T13:18:19;93215.78;;;-2.31;76.97
6198;BME280;3132;42.622;23.328;2023-02-05T13:20:55;93222.84;;;-2.33;79.27
6198;BME280;3132;42.622;23.328;2023-02-05T13:23:42;93211.69;;;-2.53;81.52
6198;BME280;3132;42.622;23.328;2023-02-05T13:26:33;93216.56;;;-2.58;82.26
6198;BME280;3132;42.622;23.328;2023-02-05T13:29:20;93209.94;;;-2.46;81.81
6198;BME280;3132;42.622;23.328;2023-02-05T13:31:57;93200.53;;;-2.73;83.83
6198;BME280;3132;42.622;23.328;2023-02-05T13:34:25;93195.84;;;-2.69;84.72
6198;BME280;3132;42.622;23.328;2023-02-05T13:37:16;93201.44;;;-2.80;86.51
6198;BME280;3132;42.622;23.328;2023-02-05T13:42:43;93201.34;;;-2.66;85.63
6198;BME280;3132;42.622;23.328;2023-02-05T13:56:46;93180.00;;;-3.78;87.62
6198;BME280;3132;42.622;23.328;2023-02-05T13:59:24;93222.31;;;-3.69;89.39
6198;BME280;3132;42.622;23.328;2023-02-05T14:01:55;93205.44;;;-3.70;89.04
6198;BME280;3132;42.622;23.328;2023-02-05T14:04:39;93215.94;;;-3.44;88.53
6198;BME280;3132;42.622;23.328;2023-02-05T14:07:13;93208.28;;;-3.94;89.55
6198;BME280;3132;42.622;23.328;2023-02-05T14:09:50;93223.94;;;-3.97;90.18
6198;BME280;3132;42.622;23.328;2023-02-05T14:12:23;93195.19;;;-4.06;90.75
6198;BME280;3132;42.622;23.328;2023-02-05T14:22:54;93190.09;;;-4.20;90.91
6198;BME280;3132;42.622;23.328;2023-02-05T14:30:56;93241.50;;;-4.02;89.58
6198;BME280;3132;42.622;23.328;2023-02-05T14:39:17;93238.78;;;-4.15;92.11
6198;BME280;3132;42.622;23.328;2023-02-05T14:41:51;93245.72;;;-4.24;90.08
6198;BME280;3132;42.622;23.328;2023-02-05T14:44:30;93253.28;;;-4.30;89.76
6198;BME280;3132;42.622;23.328;2023-02-05T14:46:59;93241.69;;;-4.33;89.07
6198;BME280;3132;42.622;23.328;2023-02-05T14:49:39;93243.06;;;-4.30;88.31
6198;BME280;3132;42.622;23.328;2023-02-05T14:54:46;93245.06;;;-4.55;87.99
6198;BME280;3132;42.622;23.328;2023-02-05T14:59:50;93234.56;;;-4.74;89.51
6198;BME280;3132;42.622;23.328;2023-02-05T15:05:20;93246.34;;;-4.73;89.97
6198;BME280;3132;42.622;23.328;2023-02-05T15:07:47;93244.25;;;-4.55;89.95
6198;BME280;3132;42.622;23.328;2023-02-05T15:10:25;93254.16;;;-4.98;90.12
6198;BME280;3132;42.622;23.328;2023-02-05T15:13:21;93249.75;;;-4.81;93.29
6198;BME280;3132;42.622;23.328;2023-02-05T15:18:32;93259.94;;;-4.81;92.84
6198;BME280;3132;42.622;23.328;2023-02-05T15:21:03;93265.91;;;-4.74;95.10
6198;BME280;3132;42.622;23.328;2023-02-05T15:23:45;93256.56;;;-4.81;95.72
6198;BME280;3132;42.622;23.328;2023-02-05T15:26:24;93261.66;;;-4.81;95.45
6198;BME280;3132;42.622;23.328;2023-02-05T15:31:45;93260.16;;;-4.90;96.88
6198;BME280;3132;42.622;23.328;2023-02-05T15:36:56;93243.28;;;-5.14;95.00